sensor_id;sensor_type;location;lat;lon;timestamp;temperature;humidity
6443;DHT22;3254;47.372;8.512;2023-04-06T00:01:49;1.00;1.00
6443;DHT22;3254;47.372;8.512;2023-04-06T00:04:14;1.00;1.00
6443;DHT22;3254;47.372;8.512;2023-04-06T00:06:40;1.00;1.00
6443;DHT22;3254;47.372;8.512;2023-04-06T00:09:06;1.00;1.00
6443;DHT22;3254;47.372;8.512;2023-04-06T00:11:32;1.10;1.00
6443;DHT22;3254;47.372;8.512;2023-04-06T00:13:58;1.00;1.00
6443;DHT22;3254;47.372;8.512;2023-04-06T00:16:23;0.90;1.00
6443;DHT22;3254;47.372;8.512;2023-04-06T00:18:49;0.80;1.00
6443;DHT22;3254;47.372;8.512;2023-04-06T00:21:14;0.70;1.00
6443;DHT22;3254;47.372;8.512;2023-04-06T00:23:41;0.70;1.00
6443;DHT22;3254;47.372;8.512;2023-04-06T00:26:08;0.40;1.00
6443;DHT22;3254;47.372;8.512;2023-04-06T00:28:34;0.30;1.00
6443;DHT22;3254;47.372;8.512;2023-04-06T00:31:00;0.20;1.00
6443;DHT22;3254;47.372;8.512;2023-04-06T00:33:26;0.40;1.00
6443;DHT22;3254;47.372;8.512;2023-04-06T00:35:52;0.50;1.00
6443;DHT22;3254;47.372;8.512;2023-04-06T00:38:17;0.70;1.00
6443;DHT22;3254;47.372;8.512;2023-04-06T00:40:43;0.70;1.00
6443;DHT22;3254;47.372;8.512;2023-04-06T00:43:13;0.70;1.00
6443;DHT22;3254;47.372;8.512;2023-04-06T00:45:42;0.70;1.00
6443;DHT22;3254;47.372;8.512;2023-04-06T00:48:08;0.60;1.00
6443;DHT22;3254;47.372;8.512;2023-04-06T00:50:34;0.50;1.00
6443;DHT22;3254;47.372;8.512;2023-04-06T00:53:00;0.50;1.00
6443;DHT22;3254;47.372;8.512;2023-04-06T00:55:27;0.50;1.00
6443;DHT22;3254;47.372;8.512;2023-04-06T00:57:53;0.50;1.00
6443;DHT22;3254;47.372;8.512;2023-04-06T01:00:19;0.50;1.00
6443;DHT22;3254;47.372;8.512;2023-04-06T01:02:45;0.40;1.00
6443;DHT22;3254;47.372;8.512;2023-04-06T01:05:11;0.40;1.00
6443;DHT22;3254;47.372;8.512;2023-04-06T01:07:38;0.30;1.00
6443;DHT22;3254;47.372;8.512;2023-04-06T01:10:04;0.30;1.00
6443;DHT22;3254;47.372;8.512;2023-04-06T01:12:30;0.30;1.00
6443;DHT22;3254;47.372;8.512;2023-04-06T01:14:55;0.30;1.00
6443;DHT22;3254;47.372;8.512;2023-04-06T01:17:21;0.30;1.00
6443;DHT22;3254;47.372;8.512;2023-04-06T01:19:47;0.20;1.00
6443;DHT22;3254;47.372;8.512;2023-04-06T01:22:19;0.20;1.00
6443;DHT22;3254;47.372;8.512;2023-04-06T01:24:45;0.10;1.00
6443;DHT22;3254;47.372;8.512;2023-04-06T01:27:10;0.00;1.00
6443;DHT22;3254;47.372;8.512;2023-04-06T01:29:36;-0.10;1.00
6443;DHT22;3254;47.372;8.512;2023-04-06T01:32:02;-0.10;1.00
6443;DHT22;3254;47.372;8.512;2023-04-06T01:34:28;-0.20;1.00
6443;DHT22;3254;47.372;8.512;2023-04-06T01:36:53;-0.30;1.00
6443;DHT22;3254;47.372;8.512;2023-04-06T01:39:19;-0.40;1.00
6443;DHT22;3254;47.372;8.512;2023-04-06T01:41:45;-0.40;1.00
6443;DHT22;3254;47.372;8.512;2023-04-06T01:44:16;-0.20;1.00
6443;DHT22;3254;47.372;8.512;2023-04-06T01:46:43;0.00;1.00
6443;DHT22;3254;47.372;8.512;2023-04-06T01:49:09;0.00;1.00
6443;DHT22;3254;47.372;8.512;2023-04-06T01:51:35;0.00;1.00
6443;DHT22;3254;47.372;8.512;2023-04-06T01:54:01;-0.10;1.00
6443;DHT22;3254;47.372;8.512;2023-04-06T01:56:26;-0.20;1.00
6443;DHT22;3254;47.372;8.512;2023-04-06T01:58:52;-0.30;1.00
6443;DHT22;3254;47.372;8.512;2023-04-06T02:01:18;-0.20;1.00
6443;DHT22;3254;47.372;8.512;2023-04-06T02:03:51;-0.20;1.00
6443;DHT22;3254;47.372;8.512;2023-04-06T02:06:16;-0.30;1.00
6443;DHT22;3254;47.372;8.512;2023-04-06T02:08:42;-0.40;1.00
6443;DHT22;3254;47.372;8.512;2023-04-06T02:11:08;-0.40;1.00
6443;DHT22;3254;47.372;8.512;2023-04-06T02:13:35;-0.50;1.00
6443;DHT22;3254;47.372;8.512;2023-04-06T02:16:01;-0.50;1.00
6443;DHT22;3254;47.372;8.512;2023-04-06T02:18:30;-0.60;1.00
6443;DHT22;3254;47.372;8.512;2023-04-06T02:20:56;-0.70;1.00
6443;DHT22;3254;47.372;8.512;2023-04-06T02:23:22;-0.70;1.00
6443;DHT22;3254;47.372;8.512;2023-04-06T02:25:48;-0.70;1.00
6443;DHT22;3254;47.372;8.512;2023-04-06T02:28:13;-0.70;1.00
6443;DHT22;3254;47.372;8.512;2023-04-06T02:30:39;-0.80;1.00
6443;DHT22;3254;47.372;8.512;2023-04-06T02:33:05;-0.70;1.00
6443;DHT22;3254;47.372;8.512;2023-04-06T02:35:31;-0.60;1.00
6443;DHT22;3254;47.372;8.512;2023-04-06T02:37:57;-0.50;1.00
6443;DHT22;3254;47.372;8.512;2023-04-06T02:40:23;-0.40;1.00
6443;DHT22;3254;47.372;8.512;2023-04-06T02:42:49;-0.40;1.00
6443;DHT22;3254;47.372;8.512;2023-04-06T02:45:15;-0.60;1.00
6443;DHT22;3254;47.372;8.512;2023-04-06T02:47:41;-0.60;1.00
6443;DHT22;3254;47.372;8.512;2023-04-06T02:50:07;-0.70;1.00
6443;DHT22;3254;47.372;8.512;2023-04-06T02:52:33;-0.80;1.00
6443;DHT22;3254;47.372;8.512;2023-04-06T02:54:58;-0.80;1.00
6443;DHT22;3254;47.372;8.512;2023-04-06T02:57:25;-0.80;1.00
6443;DHT22;3254;47.372;8.512;2023-04-06T02:59:50;-0.90;1.00
6443;DHT22;3254;47.372;8.512;2023-04-06T03:02:16;-0.90;1.00
6443;DHT22;3254;47.372;8.512;2023-04-06T03:04:44;-0.90;1.00
6443;DHT22;3254;47.372;8.512;2023-04-06T03:07:09;-0.80;1.00
6443;DHT22;3254;47.372;8.512;2023-04-06T03:09:39;-0.70;1.00
6443;DHT22;3254;47.372;8.512;2023-04-06T03:12:05;-0.80;1.00
6443;DHT22;3254;47.372;8.512;2023-04-06T03:14:30;-0.80;1.00
6443;DHT22;3254;47.372;8.512;2023-04-06T03:16:56;-0.80;1.00
6443;DHT22;3254;47.372;8.512;2023-04-06T03:19:22;-0.90;1.00
6443;DHT22;3254;47.372;8.512;2023-04-06T03:21:48;-0.90;1.00
6443;DHT22;3254;47.372;8.512;2023-04-06T03:24:14;-0.90;1.00
6443;DHT22;3254;47.372;8.512;2023-04-06T03:26:41;-0.90;1.00
6443;DHT22;3254;47.372;8.512;2023-04-06T03:29:07;-0.80;1.00
6443;DHT22;3254;47.372;8.512;2023-04-06T03:31:33;-0.90;1.00
6443;DHT22;3254;47.372;8.512;2023-04-06T03:34:00;-0.80;1.00
6443;DHT22;3254;47.372;8.512;2023-04-06T03:36:25;-0.80;1.00
6443;DHT22;3254;47.372;8.512;2023-04-06T03:38:52;-0.80;1.00
6443;DHT22;3254;47.372;8.512;2023-04-06T03:41:19;-0.80;1.00
6443;DHT22;3254;47.372;8.512;2023-04-06T03:43:45;-0.80;1.00
6443;DHT22;3254;47.372;8.512;2023-04-06T03:46:11;-0.80;1.00
6443;DHT22;3254;47.372;8.512;2023-04-06T03:48:36;-0.90;1.00
6443;DHT22;3254;47.372;8.512;2023-04-06T03:51:02;-1.00;1.00
6443;DHT22;3254;47.372;8.512;2023-04-06T03:53:30;-1.00;1.00
6443;DHT22;3254;47.372;8.512;2023-04-06T03:55:55;-0.90;1.00
6443;DHT22;3254;47.372;8.512;2023-04-06T03:58:22;-1.00;1.00
6443;DHT22;3254;47.372;8.512;2023-04-06T04:00:48;-0.90;1.00
6443;DHT22;3254;47.372;8.512;2023-04-06T04:03:13;-1.00;1.00
6443;DHT22;3254;47.372;8.512;2023-04-06T04:05:39;-1.00;1.00
6443;DHT22;3254;47.372;8.512;2023-04-06T04:08:08;-1.00;1.00
6443;DHT22;3254;47.372;8.512;2023-04-06T04:10:33;-0.90;1.00
6443;DHT22;3254;47.372;8.512;2023-04-06T04:12:59;-0.90;1.00
6443;DHT22;3254;47.372;8.512;2023-04-06T04:15:25;-0.90;1.00
6443;DHT22;3254;47.372;8.512;2023-04-06T04:17:51;-0.90;1.00
6443;DHT22;3254;47.372;8.512;2023-04-06T04:20:17;-0.70;1.00
6443;DHT22;3254;47.372;8.512;2023-04-06T04:22:43;-0.70;1.00
6443;DHT22;3254;47.372;8.512;2023-04-06T04:25:10;-0.80;1.00
6443;DHT22;3254;47.372;8.512;2023-04-06T04:27:37;-0.80;1.00
6443;DHT22;3254;47.372;8.512;2023-04-06T04:30:05;-0.90;1.00
6443;DHT22;3254;47.372;8.512;2023-04-06T04:32:32;-0.90;1.00
6443;DHT22;3254;47.372;8.512;2023-04-06T04:34:57;-0.90;1.00
6443;DHT22;3254;47.372;8.512;2023-04-06T04:37:23;-0.90;1.00
6443;DHT22;3254;47.372;8.512;2023-04-06T04:39:49;-1.00;1.00
6443;DHT22;3254;47.372;8.512;2023-04-06T04:42:14;-1.00;1.00
6443;DHT22;3254;47.372;8.512;2023-04-06T04:44:41;-1.10;1.00
6443;DHT22;3254;47.372;8.512;2023-04-06T04:47:06;-1.30;1.00
6443;DHT22;3254;47.372;8.512;2023-04-06T04:49:32;-1.30;1.00
6443;DHT22;3254;47.372;8.512;2023-04-06T04:51:57;-1.50;1.00
6443;DHT22;3254;47.372;8.512;2023-04-06T04:54:26;-1.60;1.00
6443;DHT22;3254;47.372;8.512;2023-04-06T04:56:51;-1.50;1.00
6443;DHT22;3254;47.372;8.512;2023-04-06T04:59:17;-1.40;1.00
6443;DHT22;3254;47.372;8.512;2023-04-06T05:01:43;-1.30;1.00
6443;DHT22;3254;47.372;8.512;2023-04-06T05:04:09;-1.30;1.00
6443;DHT22;3254;47.372;8.512;2023-04-06T05:06:35;-1.30;1.00
6443;DHT22;3254;47.372;8.512;2023-04-06T05:09:01;-1.30;1.00
6443;DHT22;3254;47.372;8.512;2023-04-06T05:11:26;-1.20;1.00
6443;DHT22;3254;47.372;8.512;2023-04-06T05:13:53;-1.10;1.00
6443;DHT22;3254;47.372;8.512;2023-04-06T05:16:19;-1.00;1.00
6443;DHT22;3254;47.372;8.512;2023-04-06T05:18:44;-0.90;1.00
6443;DHT22;3254;47.372;8.512;2023-04-06T05:21:11;-0.90;1.00
6443;DHT22;3254;47.372;8.512;2023-04-06T05:23:36;-0.90;1.00
6443;DHT22;3254;47.372;8.512;2023-04-06T05:26:02;-0.90;1.00
6443;DHT22;3254;47.372;8.512;2023-04-06T05:28:28;-0.90;1.00
6443;DHT22;3254;47.372;8.512;2023-04-06T05:30:55;-0.90;1.00
6443;DHT22;3254;47.372;8.512;2023-04-06T05:33:22;-1.00;1.00
6443;DHT22;3254;47.372;8.512;2023-04-06T05:35:48;-0.90;1.00
6443;DHT22;3254;47.372;8.512;2023-04-06T05:38:13;-0.90;1.00
6443;DHT22;3254;47.372;8.512;2023-04-06T05:40:39;-0.90;1.00
6443;DHT22;3254;47.372;8.512;2023-04-06T05:43:06;-0.80;1.00
6443;DHT22;3254;47.372;8.512;2023-04-06T05:45:32;-0.70;1.00
6443;DHT22;3254;47.372;8.512;2023-04-06T05:47:58;-0.60;1.00
6443;DHT22;3254;47.372;8.512;2023-04-06T05:50:28;-0.60;1.00
6443;DHT22;3254;47.372;8.512;2023-04-06T05:52:54;-0.40;1.00
6443;DHT22;3254;47.372;8.512;2023-04-06T05:55:20;-0.40;1.00
6443;DHT22;3254;47.372;8.512;2023-04-06T05:57:45;-0.40;1.00
6443;DHT22;3254;47.372;8.512;2023-04-06T06:00:11;-0.30;1.00
6443;DHT22;3254;47.372;8.512;2023-04-06T06:02:37;-0.30;1.00
6443;DHT22;3254;47.372;8.512;2023-04-06T06:05:06;-0.20;1.00
6443;DHT22;3254;47.372;8.512;2023-04-06T06:07:31;-0.20;1.00
6443;DHT22;3254;47.372;8.512;2023-04-06T06:09:58;-0.10;1.00
6443;DHT22;3254;47.372;8.512;2023-04-06T06:12:24;0.00;1.00
6443;DHT22;3254;47.372;8.512;2023-04-06T06:14:49;0.10;1.00
6443;DHT22;3254;47.372;8.512;2023-04-06T06:17:15;0.10;1.00
6443;DHT22;3254;47.372;8.512;2023-04-06T06:19:42;0.20;1.00
6443;DHT22;3254;47.372;8.512;2023-04-06T06:22:07;0.30;1.00
6443;DHT22;3254;47.372;8.512;2023-04-06T06:24:33;0.40;1.00
6443;DHT22;3254;47.372;8.512;2023-04-06T06:26:58;0.50;1.00
6443;DHT22;3254;47.372;8.512;2023-04-06T06:29:24;0.60;1.00
6443;DHT22;3254;47.372;8.512;2023-04-06T06:31:51;0.60;1.00
6443;DHT22;3254;47.372;8.512;2023-04-06T06:34:16;0.70;1.00
6443;DHT22;3254;47.372;8.512;2023-04-06T06:36:42;0.80;1.00
6443;DHT22;3254;47.372;8.512;2023-04-06T06:39:07;0.80;1.00
6443;DHT22;3254;47.372;8.512;2023-04-06T06:41:33;0.90;1.00
6443;DHT22;3254;47.372;8.512;2023-04-06T06:43:59;0.90;1.00
6443;DHT22;3254;47.372;8.512;2023-04-06T06:46:26;1.00;1.00
6443;DHT22;3254;47.372;8.512;2023-04-06T06:48:51;1.10;1.00
6443;DHT22;3254;47.372;8.512;2023-04-06T06:51:17;1.20;1.00
6443;DHT22;3254;47.372;8.512;2023-04-06T06:53:43;1.30;1.00
6443;DHT22;3254;47.372;8.512;2023-04-06T06:56:09;1.40;1.00
6443;DHT22;3254;47.372;8.512;2023-04-06T06:58:34;1.50;1.00
6443;DHT22;3254;47.372;8.512;2023-04-06T07:01:00;1.50;1.00
6443;DHT22;3254;47.372;8.512;2023-04-06T07:03:26;1.60;1.00
6443;DHT22;3254;47.372;8.512;2023-04-06T07:05:52;1.70;1.00
6443;DHT22;3254;47.372;8.512;2023-04-06T07:08:21;1.80;1.00
6443;DHT22;3254;47.372;8.512;2023-04-06T07:10:49;1.90;1.00
6443;DHT22;3254;47.372;8.512;2023-04-06T07:13:16;2.00;1.00
6443;DHT22;3254;47.372;8.512;2023-04-06T07:15:47;2.20;1.00
6443;DHT22;3254;47.372;8.512;2023-04-06T07:18:13;2.30;1.00
6443;DHT22;3254;47.372;8.512;2023-04-06T07:20:38;2.50;1.00
6443;DHT22;3254;47.372;8.512;2023-04-06T07:23:06;2.60;1.00
6443;DHT22;3254;47.372;8.512;2023-04-06T07:25:32;2.70;1.00
6443;DHT22;3254;47.372;8.512;2023-04-06T07:27:58;2.90;1.00
6443;DHT22;3254;47.372;8.512;2023-04-06T07:30:26;3.00;1.00
6443;DHT22;3254;47.372;8.512;2023-04-06T07:32:54;3.00;1.00
6443;DHT22;3254;47.372;8.512;2023-04-06T07:35:25;3.50;1.00
6443;DHT22;3254;47.372;8.512;2023-04-06T07:37:53;4.30;1.00
6443;DHT22;3254;47.372;8.512;2023-04-06T07:40:19;5.60;1.00
6443;DHT22;3254;47.372;8.512;2023-04-06T07:42:46;6.50;1.00
6443;DHT22;3254;47.372;8.512;2023-04-06T07:45:12;7.30;1.00
6443;DHT22;3254;47.372;8.512;2023-04-06T07:47:38;8.20;1.00
6443;DHT22;3254;47.372;8.512;2023-04-06T07:50:05;8.70;1.00
6443;DHT22;3254;47.372;8.512;2023-04-06T07:52:31;9.40;1.00
6443;DHT22;3254;47.372;8.512;2023-04-06T07:54:58;9.80;1.00
6443;DHT22;3254;47.372;8.512;2023-04-06T07:57:25;9.90;1.00
6443;DHT22;3254;47.372;8.512;2023-04-06T07:59:50;10.00;1.00
6443;DHT22;3254;47.372;8.512;2023-04-06T08:02:18;10.40;1.00
6443;DHT22;3254;47.372;8.512;2023-04-06T08:04:45;11.20;1.00
6443;DHT22;3254;47.372;8.512;2023-04-06T08:07:11;11.40;1.00
6443;DHT22;3254;47.372;8.512;2023-04-06T08:09:37;12.20;1.00
6443;DHT22;3254;47.372;8.512;2023-04-06T08:12:03;12.40;1.00
6443;DHT22;3254;47.372;8.512;2023-04-06T08:14:30;12.80;1.00
6443;DHT22;3254;47.372;8.512;2023-04-06T08:16:57;13.00;1.00
6443;DHT22;3254;47.372;8.512;2023-04-06T08:19:23;13.00;1.00
6443;DHT22;3254;47.372;8.512;2023-04-06T08:21:48;13.30;1.00
6443;DHT22;3254;47.372;8.512;2023-04-06T08:24:14;12.90;1.00
6443;DHT22;3254;47.372;8.512;2023-04-06T08:26:41;13.70;1.00
6443;DHT22;3254;47.372;8.512;2023-04-06T08:29:07;13.80;1.00
6443;DHT22;3254;47.372;8.512;2023-04-06T08:31:36;14.00;1.00
6443;DHT22;3254;47.372;8.512;2023-04-06T08:34:05;13.90;1.00
6443;DHT22;3254;47.372;8.512;2023-04-06T08:36:33;14.00;1.00
6443;DHT22;3254;47.372;8.512;2023-04-06T08:39:00;13.70;1.00
6443;DHT22;3254;47.372;8.512;2023-04-06T08:41:27;13.80;1.00
6443;DHT22;3254;47.372;8.512;2023-04-06T08:43:57;14.00;1.00
6443;DHT22;3254;47.372;8.512;2023-04-06T08:46:25;14.30;1.00
6443;DHT22;3254;47.372;8.512;2023-04-06T08:48:59;14.40;1.00
6443;DHT22;3254;47.372;8.512;2023-04-06T08:51:26;14.70;1.00
6443;DHT22;3254;47.372;8.512;2023-04-06T08:53:56;15.00;1.00
6443;DHT22;3254;47.372;8.512;2023-04-06T08:56:24;15.50;1.00
6443;DHT22;3254;47.372;8.512;2023-04-06T08:58:53;15.60;1.00
6443;DHT22;3254;47.372;8.512;2023-04-06T09:01:27;15.60;1.00
6443;DHT22;3254;47.372;8.512;2023-04-06T09:03:58;15.70;1.00
6443;DHT22;3254;47.372;8.512;2023-04-06T09:06:26;15.70;1.00
6443;DHT22;3254;47.372;8.512;2023-04-06T09:08:52;15.90;1.00
6443;DHT22;3254;47.372;8.512;2023-04-06T09:11:20;15.10;1.00
6443;DHT22;3254;47.372;8.512;2023-04-06T09:13:55;15.60;1.00
6443;DHT22;3254;47.372;8.512;2023-04-06T09:16:22;15.40;1.00
6443;DHT22;3254;47.372;8.512;2023-04-06T09:18:50;15.40;1.00
6443;DHT22;3254;47.372;8.512;2023-04-06T09:21:19;15.90;1.00
6443;DHT22;3254;47.372;8.512;2023-04-06T09:23:45;16.50;1.00
6443;DHT22;3254;47.372;8.512;2023-04-06T09:26:16;16.70;1.00
6443;DHT22;3254;47.372;8.512;2023-04-06T09:28:51;17.70;1.00
6443;DHT22;3254;47.372;8.512;2023-04-06T09:31:22;18.30;1.00
6443;DHT22;3254;47.372;8.512;2023-04-06T09:33:48;18.40;1.00
6443;DHT22;3254;47.372;8.512;2023-04-06T09:36:14;19.20;1.00
6443;DHT22;3254;47.372;8.512;2023-04-06T09:39:19;19.30;1.00
6443;DHT22;3254;47.372;8.512;2023-04-06T09:41:50;18.80;1.00
6443;DHT22;3254;47.372;8.512;2023-04-06T09:44:15;18.00;1.00
6443;DHT22;3254;47.372;8.512;2023-04-06T09:46:42;18.10;1.00
6443;DHT22;3254;47.372;8.512;2023-04-06T09:49:09;17.40;1.00
6443;DHT22;3254;47.372;8.512;2023-04-06T09:51:44;17.10;1.00
6443;DHT22;3254;47.372;8.512;2023-04-06T09:54:15;17.70;1.00
6443;DHT22;3254;47.372;8.512;2023-04-06T09:56:46;18.00;1.00
6443;DHT22;3254;47.372;8.512;2023-04-06T09:59:29;18.20;1.00
6443;DHT22;3254;47.372;8.512;2023-04-06T10:01:58;17.00;1.00
6443;DHT22;3254;47.372;8.512;2023-04-06T10:07:09;15.90;1.00
6443;DHT22;3254;47.372;8.512;2023-04-06T10:09:37;16.10;1.00
6443;DHT22;3254;47.372;8.512;2023-04-06T10:12:04;16.80;1.00
6443;DHT22;3254;47.372;8.512;2023-04-06T10:14:35;16.60;1.00
6443;DHT22;3254;47.372;8.512;2023-04-06T10:17:06;16.40;1.00
6443;DHT22;3254;47.372;8.512;2023-04-06T10:19:53;15.70;1.00
6443;DHT22;3254;47.372;8.512;2023-04-06T10:22:32;15.90;1.00
6443;DHT22;3254;47.372;8.512;2023-04-06T10:25:00;16.10;1.00
6443;DHT22;3254;47.372;8.512;2023-04-06T10:27:30;16.60;1.00
6443;DHT22;3254;47.372;8.512;2023-04-06T10:30:06;17.00;1.00
6443;DHT22;3254;47.372;8.512;2023-04-06T10:32:40;16.30;1.00
6443;DHT22;3254;47.372;8.512;2023-04-06T10:35:11;16.50;1.00
6443;DHT22;3254;47.372;8.512;2023-04-06T10:38:00;17.50;1.00
6443;DHT22;3254;47.372;8.512;2023-04-06T10:40:26;18.50;1.00
6443;DHT22;3254;47.372;8.512;2023-04-06T10:42:55;17.80;1.00
6443;DHT22;3254;47.372;8.512;2023-04-06T10:45:33;17.50;1.00
6443;DHT22;3254;47.372;8.512;2023-04-06T10:47:59;17.80;1.00
6443;DHT22;3254;47.372;8.512;2023-04-06T10:50:24;18.50;1.00
6443;DHT22;3254;47.372;8.512;2023-04-06T10:53:02;18.80;1.00
6443;DHT22;3254;47.372;8.512;2023-04-06T10:55:28;20.10;1.00
6443;DHT22;3254;47.372;8.512;2023-04-06T10:57:54;21.30;1.00
6443;DHT22;3254;47.372;8.512;2023-04-06T11:00:22;20.50;1.00
6443;DHT22;3254;47.372;8.512;2023-04-06T11:02:48;20.30;1.00
6443;DHT22;3254;47.372;8.512;2023-04-06T11:05:15;20.50;1.00
6443;DHT22;3254;47.372;8.512;2023-04-06T11:07:41;21.70;1.00
6443;DHT22;3254;47.372;8.512;2023-04-06T11:10:08;21.60;1.00
6443;DHT22;3254;47.372;8.512;2023-04-06T11:12:35;20.90;1.00
6443;DHT22;3254;47.372;8.512;2023-04-06T11:15:03;19.50;1.00
6443;DHT22;3254;47.372;8.512;2023-04-06T11:17:37;17.90;1.00
6443;DHT22;3254;47.372;8.512;2023-04-06T11:20:04;17.90;1.00
6443;DHT22;3254;47.372;8.512;2023-04-06T11:22:30;18.10;1.00
6443;DHT22;3254;47.372;8.512;2023-04-06T11:25:06;18.90;1.00
6443;DHT22;3254;47.372;8.512;2023-04-06T11:27:35;19.10;1.00
6443;DHT22;3254;47.372;8.512;2023-04-06T11:30:02;20.40;1.00
6443;DHT22;3254;47.372;8.512;2023-04-06T11:32:28;20.80;1.00
6443;DHT22;3254;47.372;8.512;2023-04-06T11:34:54;20.50;1.00
6443;DHT22;3254;47.372;8.512;2023-04-06T11:37:19;20.90;1.00
6443;DHT22;3254;47.372;8.512;2023-04-06T11:39:51;21.10;1.00
6443;DHT22;3254;47.372;8.512;2023-04-06T11:42:24;21.60;1.00
6443;DHT22;3254;47.372;8.512;2023-04-06T11:44:53;22.10;1.00
6443;DHT22;3254;47.372;8.512;2023-04-06T11:47:28;23.10;1.00
6443;DHT22;3254;47.372;8.512;2023-04-06T11:49:56;22.80;1.00
6443;DHT22;3254;47.372;8.512;2023-04-06T11:52:30;22.10;1.00
6443;DHT22;3254;47.372;8.512;2023-04-06T11:54:56;21.50;1.00
6443;DHT22;3254;47.372;8.512;2023-04-06T11:57:23;21.30;1.00
6443;DHT22;3254;47.372;8.512;2023-04-06T11:59:53;21.20;1.00
6443;DHT22;3254;47.372;8.512;2023-04-06T12:02:19;21.50;1.00
6443;DHT22;3254;47.372;8.512;2023-04-06T12:04:45;21.30;1.00
6443;DHT22;3254;47.372;8.512;2023-04-06T12:07:11;22.10;1.00
6443;DHT22;3254;47.372;8.512;2023-04-06T12:09:38;22.90;1.00
6443;DHT22;3254;47.372;8.512;2023-04-06T12:12:04;22.60;1.00
6443;DHT22;3254;47.372;8.512;2023-04-06T12:14:30;22.10;1.00
6443;DHT22;3254;47.372;8.512;2023-04-06T12:16:56;22.30;1.00
6443;DHT22;3254;47.372;8.512;2023-04-06T12:19:25;21.50;1.00
6443;DHT22;3254;47.372;8.512;2023-04-06T12:21:52;21.20;1.00
6443;DHT22;3254;47.372;8.512;2023-04-06T12:24:18;21.20;1.00
6443;DHT22;3254;47.372;8.512;2023-04-06T12:26:44;21.40;1.00
6443;DHT22;3254;47.372;8.512;2023-04-06T12:29:10;20.70;1.00
6443;DHT22;3254;47.372;8.512;2023-04-06T12:31:38;21.20;1.00
6443;DHT22;3254;47.372;8.512;2023-04-06T12:34:06;21.70;1.00
6443;DHT22;3254;47.372;8.512;2023-04-06T12:36:32;22.00;1.00
6443;DHT22;3254;47.372;8.512;2023-04-06T12:38:59;22.20;1.00
6443;DHT22;3254;47.372;8.512;2023-04-06T12:41:27;21.40;1.00
6443;DHT22;3254;47.372;8.512;2023-04-06T12:43:52;20.80;1.00
6443;DHT22;3254;47.372;8.512;2023-04-06T12:46:19;20.50;1.00
6443;DHT22;3254;47.372;8.512;2023-04-06T12:48:45;20.40;1.00
6443;DHT22;3254;47.372;8.512;2023-04-06T12:51:11;21.10;1.00
6443;DHT22;3254;47.372;8.512;2023-04-06T12:53:37;21.10;1.00
6443;DHT22;3254;47.372;8.512;2023-04-06T12:56:14;22.20;1.00
6443;DHT22;3254;47.372;8.512;2023-04-06T12:58:39;22.50;1.00
6443;DHT22;3254;47.372;8.512;2023-04-06T13:01:07;22.10;1.00
6443;DHT22;3254;47.372;8.512;2023-04-06T13:03:33;22.30;1.00
6443;DHT22;3254;47.372;8.512;2023-04-06T13:06:00;21.90;1.00
6443;DHT22;3254;47.372;8.512;2023-04-06T13:08:27;22.80;1.00
6443;DHT22;3254;47.372;8.512;2023-04-06T13:10:53;22.00;1.00
6443;DHT22;3254;47.372;8.512;2023-04-06T13:13:23;20.90;1.00
6443;DHT22;3254;47.372;8.512;2023-04-06T13:15:49;20.40;1.00
6443;DHT22;3254;47.372;8.512;2023-04-06T13:18:16;20.80;1.00
6443;DHT22;3254;47.372;8.512;2023-04-06T13:20:42;20.10;1.00
6443;DHT22;3254;47.372;8.512;2023-04-06T13:23:08;19.70;1.00
6443;DHT22;3254;47.372;8.512;2023-04-06T13:25:34;19.40;1.00
6443;DHT22;3254;47.372;8.512;2023-04-06T13:27:59;19.60;1.00
6443;DHT22;3254;47.372;8.512;2023-04-06T13:30:25;20.60;1.00
6443;DHT22;3254;47.372;8.512;2023-04-06T13:32:51;21.10;1.00
6443;DHT22;3254;47.372;8.512;2023-04-06T13:35:17;21.00;1.00
6443;DHT22;3254;47.372;8.512;2023-04-06T13:37:43;20.60;1.00
6443;DHT22;3254;47.372;8.512;2023-04-06T13:40:10;20.30;1.00
6443;DHT22;3254;47.372;8.512;2023-04-06T13:42:36;20.20;1.00
6443;DHT22;3254;47.372;8.512;2023-04-06T13:45:03;19.90;1.00
6443;DHT22;3254;47.372;8.512;2023-04-06T13:47:29;20.40;1.00
6443;DHT22;3254;47.372;8.512;2023-04-06T13:49:55;20.70;1.00
6443;DHT22;3254;47.372;8.512;2023-04-06T13:52:22;21.10;1.00
6443;DHT22;3254;47.372;8.512;2023-04-06T13:54:49;20.90;1.00
6443;DHT22;3254;47.372;8.512;2023-04-06T13:57:14;21.30;1.00
6443;DHT22;3254;47.372;8.512;2023-04-06T13:59:41;21.20;1.00
6443;DHT22;3254;47.372;8.512;2023-04-06T14:02:09;20.80;1.00
6443;DHT22;3254;47.372;8.512;2023-04-06T14:04:35;21.50;1.00
6443;DHT22;3254;47.372;8.512;2023-04-06T14:07:03;22.20;1.00
6443;DHT22;3254;47.372;8.512;2023-04-06T14:09:30;21.60;1.00
6443;DHT22;3254;47.372;8.512;2023-04-06T14:11:56;20.70;1.00
6443;DHT22;3254;47.372;8.512;2023-04-06T14:14:22;19.20;1.00
6443;DHT22;3254;47.372;8.512;2023-04-06T14:16:48;19.40;1.00
6443;DHT22;3254;47.372;8.512;2023-04-06T14:19:16;19.20;1.00
6443;DHT22;3254;47.372;8.512;2023-04-06T14:21:45;18.60;1.00
6443;DHT22;3254;47.372;8.512;2023-04-06T14:24:11;18.80;1.00
6443;DHT22;3254;47.372;8.512;2023-04-06T14:26:37;19.30;1.00
6443;DHT22;3254;47.372;8.512;2023-04-06T14:29:03;19.70;1.00
6443;DHT22;3254;47.372;8.512;2023-04-06T14:31:30;19.50;1.00
6443;DHT22;3254;47.372;8.512;2023-04-06T14:33:56;19.40;1.00
6443;DHT22;3254;47.372;8.512;2023-04-06T14:36:22;19.30;1.00
6443;DHT22;3254;47.372;8.512;2023-04-06T14:38:48;19.20;1.00
6443;DHT22;3254;47.372;8.512;2023-04-06T14:41:21;19.60;1.00
6443;DHT22;3254;47.372;8.512;2023-04-06T14:43:47;19.30;1.00
6443;DHT22;3254;47.372;8.512;2023-04-06T14:46:13;19.10;1.00
6443;DHT22;3254;47.372;8.512;2023-04-06T14:48:39;18.60;1.00
6443;DHT22;3254;47.372;8.512;2023-04-06T14:51:04;18.20;1.00
6443;DHT22;3254;47.372;8.512;2023-04-06T14:53:30;18.20;1.00
6443;DHT22;3254;47.372;8.512;2023-04-06T14:55:56;17.90;1.00
6443;DHT22;3254;47.372;8.512;2023-04-06T14:58:26;17.70;1.00
6443;DHT22;3254;47.372;8.512;2023-04-06T15:01:00;17.70;1.00
6443;DHT22;3254;47.372;8.512;2023-04-06T15:03:27;17.50;1.00
6443;DHT22;3254;47.372;8.512;2023-04-06T15:05:55;17.70;1.00
6443;DHT22;3254;47.372;8.512;2023-04-06T15:08:24;17.60;1.00
6443;DHT22;3254;47.372;8.512;2023-04-06T15:10:51;17.60;1.00
6443;DHT22;3254;47.372;8.512;2023-04-06T15:13:17;17.40;1.00
6443;DHT22;3254;47.372;8.512;2023-04-06T15:15:44;17.30;1.00
6443;DHT22;3254;47.372;8.512;2023-04-06T15:18:10;17.10;1.00
6443;DHT22;3254;47.372;8.512;2023-04-06T15:20:36;17.00;1.00
6443;DHT22;3254;47.372;8.512;2023-04-06T15:23:03;16.70;1.00
6443;DHT22;3254;47.372;8.512;2023-04-06T15:25:30;16.60;1.00
6443;DHT22;3254;47.372;8.512;2023-04-06T15:27:56;16.50;1.00
6443;DHT22;3254;47.372;8.512;2023-04-06T15:30:22;16.40;1.00
6443;DHT22;3254;47.372;8.512;2023-04-06T15:33:01;16.20;1.00
6443;DHT22;3254;47.372;8.512;2023-04-06T15:35:29;16.00;1.00
6443;DHT22;3254;47.372;8.512;2023-04-06T15:37:56;15.40;1.00
6443;DHT22;3254;47.372;8.512;2023-04-06T15:40:24;15.20;1.00
6443;DHT22;3254;47.372;8.512;2023-04-06T15:42:50;15.20;1.00
6443;DHT22;3254;47.372;8.512;2023-04-06T15:45:16;14.90;1.00
6443;DHT22;3254;47.372;8.512;2023-04-06T15:47:43;15.00;1.00
6443;DHT22;3254;47.372;8.512;2023-04-06T15:50:09;15.10;1.00
6443;DHT22;3254;47.372;8.512;2023-04-06T15:52:38;15.00;1.00
6443;DHT22;3254;47.372;8.512;2023-04-06T15:55:05;15.10;1.00
6443;DHT22;3254;47.372;8.512;2023-04-06T15:57:31;14.90;1.00
6443;DHT22;3254;47.372;8.512;2023-04-06T15:59:59;14.70;1.00
6443;DHT22;3254;47.372;8.512;2023-04-06T16:02:27;14.70;1.00
6443;DHT22;3254;47.372;8.512;2023-04-06T16:04:59;14.50;1.00
6443;DHT22;3254;47.372;8.512;2023-04-06T16:07:29;14.50;1.00
6443;DHT22;3254;47.372;8.512;2023-04-06T16:09:59;14.60;1.00
6443;DHT22;3254;47.372;8.512;2023-04-06T16:12:25;14.70;1.00
6443;DHT22;3254;47.372;8.512;2023-04-06T16:14:51;14.80;1.00
6443;DHT22;3254;47.372;8.512;2023-04-06T16:17:17;14.60;1.00
6443;DHT22;3254;47.372;8.512;2023-04-06T16:19:42;14.40;1.00
6443;DHT22;3254;47.372;8.512;2023-04-06T16:22:09;14.10;1.00
6443;DHT22;3254;47.372;8.512;2023-04-06T16:24:35;14.00;1.00